Time;durP1;ratioP1;P1;durP2;ratioP2;P2;SDS_P1;SDS_P2;PMS_P1;PMS_P2;Temp;Humidity;BMP_temperature;BMP_pressure;BME280_temperature;BME280_humidity;BME280_pressure;Samples;Min_cycle;Max_cycle;Signal;HPM_P1;HPM_P2
2023/07/23 00:02:04;;;;;;;14.48;9.50;;;;;;;16.43;80.71;101098.66;7395155;19;20018;-62
2023/07/23 00:04:31;;;;;;;14.57;9.32;;;;;;;16.51;80.56;101097.97;7392807;19;20086;-62
2023/07/23 00:06:58;;;;;;;16.98;9.80;;;;;;;16.56;80.27;101096.56;7392892;19;20014;-62
2023/07/23 00:09:26;;;;;;;16.35;9.60;;;;;;;16.47;80.47;101093.88;7394731;19;20022;-63
2023/07/23 00:11:53;;;;;;;12.63;8.25;;;;;;;16.54;80.18;101089.66;7392552;19;20038;-62
2023/07/23 00:14:20;;;;;;;14.07;9.00;;;;;;;16.52;80.13;101081.78;7393248;19;20023;-62
2023/07/23 00:16:48;;;;;;;14.90;9.63;;;;;;;16.56;79.92;101083.19;7391069;19;20503;-61
2023/07/23 00:19:19;;;;;;;17.40;9.48;;;;;;;16.58;79.89;101088.38;7395255;19;20047;-62
2023/07/23 00:21:48;;;;;;;14.68;9.32;;;;;;;16.44;80.24;101078.97;7394413;19;20060;-61
2023/07/23 00:24:21;;;;;;;17.00;9.38;;;;;;;16.48;80.33;101079.53;7394402;19;20018;-62
2023/07/23 00:26:48;;;;;;;12.60;9.35;;;;;;;16.51;80.42;101080.06;7391560;19;20022;-63
2023/07/23 00:29:15;;;;;;;13.75;8.98;;;;;;;16.48;80.11;101075.03;7394352;19;20018;-62
2023/07/23 00:31:43;;;;;;;14.57;9.00;;;;;;;16.60;79.79;101073.03;7394558;19;20024;-62
2023/07/23 00:34:10;;;;;;;13.00;9.13;;;;;;;16.62;79.70;101075.56;7396787;19;20527;-63
2023/07/23 00:36:37;;;;;;;12.70;9.38;;;;;;;16.57;79.87;101070.66;7391472;19;20022;-63
2023/07/23 00:39:05;;;;;;;15.30;9.57;;;;;;;16.54;79.70;101062.91;7391561;19;20495;-63
2023/07/23 00:41:32;;;;;;;14.57;8.52;;;;;;;16.60;80.12;101061.47;7392824;19;20026;-62
2023/07/23 00:44:00;;;;;;;14.52;9.27;;;;;;;16.67;79.35;101063.44;7393497;19;20019;-62
2023/07/23 00:46:28;;;;;;;13.85;8.48;;;;;;;16.68;79.36;101059.78;7391366;19;20021;-62
2023/07/23 00:48:56;;;;;;;17.48;9.65;;;;;;;16.67;79.34;101054.56;7393325;19;20086;-62
2023/07/23 00:51:23;;;;;;;13.45;9.15;;;;;;;16.60;79.89;101048.97;7393015;19;20023;-63
2023/07/23 00:53:51;;;;;;;14.65;9.38;;;;;;;16.64;79.65;101044.19;7393244;19;20010;-63
2023/07/23 00:56:18;;;;;;;14.93;9.10;;;;;;;16.65;79.62;101053.88;7390913;19;20871;-63
2023/07/23 00:58:47;;;;;;;14.73;9.40;;;;;;;16.66;79.61;101044.88;7393656;19;20018;-63
2023/07/23 01:01:14;;;;;;;15.32;9.20;;;;;;;16.58;79.80;101025.03;7390229;19;20011;-60
2023/07/23 01:03:42;;;;;;;15.27;9.68;;;;;;;16.63;79.82;101027.28;7392970;19;20029;-60
2023/07/23 01:06:11;;;;;;;14.85;9.57;;;;;;;16.62;80.01;101017.56;7391139;19;20495;-62
2023/07/23 01:08:42;;;;;;;16.23;9.52;;;;;;;16.67;80.08;101027.81;7391133;19;20022;-60
2023/07/23 01:11:10;;;;;;;15.20;9.52;;;;;;;16.62;80.05;101022.09;7392431;19;20018;-60
2023/07/23 01:13:38;;;;;;;14.52;9.55;;;;;;;16.57;80.11;101015.34;7391013;19;20014;-58
2023/07/23 01:16:08;;;;;;;14.68;9.45;;;;;;;16.59;80.00;101012.50;7390404;19;20039;-58
2023/07/23 01:18:39;;;;;;;16.05;9.80;;;;;;;16.52;80.09;101014.94;7392926;19;20467;-59
2023/07/23 01:21:06;;;;;;;13.20;9.80;;;;;;;16.48;80.43;101010.00;7392041;19;20090;-58
2023/07/23 01:23:33;;;;;;;17.55;10.70;;;;;;;16.53;80.68;101013.13;7392526;19;20010;-58
2023/07/23 01:26:01;;;;;;;17.40;9.68;;;;;;;16.51;80.04;100999.88;7391378;19;20043;-59
2023/07/23 01:28:28;;;;;;;16.27;9.68;;;;;;;16.51;80.20;100989.19;7392048;19;20350;-60
2023/07/23 01:30:55;;;;;;;14.73;9.43;;;;;;;16.55;80.18;100987.91;7390249;19;20011;-59
2023/07/23 01:33:23;;;;;;;16.02;9.48;;;;;;;16.58;80.02;100984.09;7393948;19;20038;-59
2023/07/23 01:35:54;;;;;;;15.80;9.68;;;;;;;16.61;80.13;100977.63;7391317;19;20018;-59
2023/07/23 01:38:22;;;;;;;13.65;9.65;;;;;;;16.61;80.02;100977.63;7392406;19;20038;-58
2023/07/23 01:40:51;;;;;;;16.58;9.05;;;;;;;16.56;79.80;100970.03;7391542;19;20078;-58
2023/07/23 01:43:18;;;;;;;17.80;10.55;;;;;;;16.48;80.38;100967.22;7390248;19;20085;-58
2023/07/23 01:45:47;;;;;;;15.52;9.90;;;;;;;16.47;80.31;100971.75;7390680;19;20014;-56
2023/07/23 01:48:15;;;;;;;15.65;10.15;;;;;;;16.54;80.07;100972.84;7390370;19;20046;-56
2023/07/23 01:50:43;;;;;;;14.80;9.75;;;;;;;16.53;80.27;100967.66;7391086;19;20018;-57
2023/07/23 01:53:10;;;;;;;16.30;10.02;;;;;;;16.46;80.02;100955.88;7388949;19;20019;-58
2023/07/23 01:55:37;;;;;;;16.77;10.13;;;;;;;16.47;80.24;100952.19;7390220;19;20023;-58
2023/07/23 01:58:05;;;;;;;15.00;9.40;;;;;;;16.42;80.68;100957.16;7392005;19;20092;-54
2023/07/23 02:00:32;;;;;;;17.17;10.05;;;;;;;16.39;80.38;100946.75;7391099;19;20259;-59
2023/07/23 02:02:59;;;;;;;13.10;9.23;;;;;;;16.43;80.37;100948.97;7389719;19;20019;-59
2023/07/23 02:05:29;;;;;;;16.85;9.43;;;;;;;16.50;80.29;100949.22;7391060;19;20039;-57
2023/07/23 02:07:56;;;;;;;14.38;9.85;;;;;;;16.50;80.42;100936.69;7389396;19;20082;-60
2023/07/23 02:10:23;;;;;;;15.82;9.63;;;;;;;16.52;80.33;100948.09;7391006;19;20015;-58
2023/07/23 02:12:50;;;;;;;14.10;9.00;;;;;;;16.54;80.16;100940.75;7389242;19;20082;-58
2023/07/23 02:15:18;;;;;;;14.43;8.75;;;;;;;16.50;80.32;100936.69;7390078;19;20482;-58
2023/07/23 02:17:46;;;;;;;15.25;10.07;;;;;;;16.52;80.25;100942.75;7390410;19;20042;-58
2023/07/23 02:20:13;;;;;;;13.75;8.95;;;;;;;16.54;79.93;100934.56;7389593;19;20086;-58
2023/07/23 02:22:40;;;;;;;13.98;8.73;;;;;;;16.61;79.80;100945.53;7389214;19;20026;-58
2023/07/23 02:25:08;;;;;;;14.50;9.32;;;;;;;16.64;79.64;100943.41;7388744;19;20023;-59
2023/07/23 02:27:36;;;;;;;15.88;9.30;;;;;;;16.61;79.86;100935.69;7388090;19;20042;-59
2023/07/23 02:30:04;;;;;;;15.93;10.05;;;;;;;16.58;79.92;100938.63;7390435;19;20019;-58
2023/07/23 02:32:32;;;;;;;15.10;9.10;;;;;;;16.53;80.03;100936.41;7384889;19;20022;-58
2023/07/23 02:35:00;;;;;;;13.32;8.82;;;;;;;16.56;80.03;100933.44;7394318;19;20018;-59
2023/07/23 02:37:27;;;;;;;16.58;9.05;;;;;;;16.58;80.02;100930.63;7390663;19;20019;-59
2023/07/23 02:39:55;;;;;;;13.43;8.60;;;;;;;16.62;79.85;100928.50;7389665;19;20031;-59
2023/07/23 02:42:22;;;;;;;15.20;9.18;;;;;;;16.56;80.04;100922.75;7389397;19;20050;-59
2023/07/23 02:44:52;;;;;;;13.75;8.32;;;;;;;16.56;80.00;100928.09;7389684;19;20019;-59
2023/07/23 02:47:20;;;;;;;15.98;9.40;;;;;;;16.51;80.05;100930.34;7388805;19;20018;-59
2023/07/23 02:49:47;;;;;;;15.52;9.05;;;;;;;16.45;80.62;100922.09;7388169;19;20039;-59
2023/07/23 02:52:15;;;;;;;15.30;8.70;;;;;;;16.54;79.95;100918.53;7389190;19;20052;-59
2023/07/23 02:54:43;;;;;;;13.85;8.27;;;;;;;16.60;80.22;100928.66;7389421;19;20026;-60
2023/07/23 02:57:10;;;;;;;14.20;9.07;;;;;;;16.61;79.93;100919.63;7389093;19;20019;-59
2023/07/23 02:59:37;;;;;;;14.88;8.75;;;;;;;16.57;80.15;100923.59;7389755;19;20022;-59
2023/07/23 03:02:04;;;;;;;14.95;8.68;;;;;;;16.59;79.79;100910.91;7388078;19;20043;-59
2023/07/23 03:04:32;;;;;;;15.50;7.45;;;;;;;16.61;79.56;100900.91;7392204;19;20054;-59
2023/07/23 03:06:59;;;;;;;12.60;7.82;;;;;;;16.53;79.87;100900.81;7395914;19;20019;-60
2023/07/23 03:09:27;;;;;;;16.75;8.45;;;;;;;16.55;79.64;100907.69;7395251;19;20018;-57
2023/07/23 03:11:54;;;;;;;16.40;8.80;;;;;;;16.50;79.93;100901.94;7395192;19;20042;-58
2023/07/23 03:14:21;;;;;;;14.13;7.30;;;;;;;16.57;79.77;100902.22;7396648;19;20030;-59
2023/07/23 03:16:48;;;;;;;13.80;7.93;;;;;;;16.59;79.57;100908.22;7396317;19;20023;-58
2023/07/23 03:19:16;;;;;;;14.07;7.65;;;;;;;16.63;79.38;100903.44;7396843;19;20502;-59
2023/07/23 03:21:43;;;;;;;12.80;7.75;;;;;;;16.57;79.38;100895.03;7393983;19;20030;-58
2023/07/23 03:24:10;;;;;;;11.57;7.05;;;;;;;16.64;79.38;100902.47;7396342;19;20349;-59
2023/07/23 03:26:37;;;;;;;14.80;7.85;;;;;;;16.58;79.74;100895.84;7396160;19;20089;-58
2023/07/23 03:29:07;;;;;;;11.57;7.25;;;;;;;16.56;79.99;100906.72;7395717;19;20523;-57
2023/07/23 03:31:35;;;;;;;12.48;7.03;;;;;;;16.53;79.66;100900.81;7395321;19;20043;-58
2023/07/23 03:34:02;;;;;;;12.63;6.93;;;;;;;16.49;79.98;100894.09;7397001;19;20380;-60
2023/07/23 03:36:29;;;;;;;13.73;7.03;;;;;;;16.45;79.92;100893.53;7396247;19;20193;-58
2023/07/23 03:38:57;;;;;;;12.57;7.00;;;;;;;16.49;79.86;100894.94;7395711;19;20484;-58
2023/07/23 03:41:24;;;;;;;13.50;6.68;;;;;;;16.58;79.68;100893.19;7395419;19;20018;-58
2023/07/23 03:43:52;;;;;;;11.35;6.75;;;;;;;16.57;79.47;100875.47;7396273;19;20015;-58
2023/07/23 03:46:19;;;;;;;13.57;6.80;;;;;;;16.61;80.00;100882.19;7395552;19;20429;-59
2023/07/23 03:48:47;;;;;;;11.48;6.53;;;;;;;16.57;80.04;100875.47;7393781;19;20015;-59
2023/07/23 03:51:15;;;;;;;13.88;6.55;;;;;;;16.61;79.79;100870.66;7394799;19;20054;-58
2023/07/23 03:53:43;;;;;;;14.70;7.82;;;;;;;16.64;79.74;100868.53;7395862;19;20035;-59
2023/07/23 03:56:10;;;;;;;14.43;7.43;;;;;;;16.61;79.69;100865.31;7394443;19;20054;-58
2023/07/23 03:58:37;;;;;;;16.35;7.40;;;;;;;16.55;80.19;100869.41;7394934;19;20516;-59
2023/07/23 04:01:04;;;;;;;12.32;7.28;;;;;;;16.62;80.16;100864.31;7394751;19;20025;-56
2023/07/23 04:03:32;;;;;;;11.82;6.80;;;;;;;16.61;80.05;100850.13;7396005;19;20070;-56
2023/07/23 04:05:59;;;;;;;13.88;7.13;;;;;;;16.66;79.89;100837.13;7393210;19;20093;-56
2023/07/23 04:08:26;;;;;;;13.68;7.38;;;;;;;16.68;80.01;100831.63;7393458;19;20018;-55
2023/07/23 04:10:55;;;;;;;11.68;7.32;;;;;;;16.70;79.99;100841.19;7395163;19;20546;-55
2023/07/23 04:13:22;;;;;;;12.40;7.18;;;;;;;16.70;80.35;100837.66;7395502;19;20038;-55
2023/07/23 04:15:49;;;;;;;12.90;7.28;;;;;;;16.65;80.73;100834.63;7393213;19;20046;-55
2023/07/23 04:18:17;;;;;;;12.40;7.03;;;;;;;16.63;80.84;100834.75;7395079;19;20014;-56
2023/07/23 04:20:44;;;;;;;13.43;6.63;;;;;;;16.63;80.71;100824.03;7395069;19;20018;-56
2023/07/23 04:23:11;;;;;;;12.48;7.32;;;;;;;16.65;80.74;100827.44;7392299;19;20022;-58
2023/07/23 04:25:39;;;;;;;14.73;6.93;;;;;;;16.66;80.36;100829.09;7393905;19;20086;-59
2023/07/23 04:28:06;;;;;;;11.25;6.43;;;;;;;16.67;80.17;100820.06;7393229;19;20022;-59
2023/07/23 04:30:34;;;;;;;13.10;7.32;;;;;;;16.68;80.26;100805.75;7393036;19;20025;-58
2023/07/23 04:33:02;;;;;;;15.85;8.02;;;;;;;16.69;80.56;100809.25;7393517;19;20030;-59
2023/07/23 04:35:29;;;;;;;12.38;7.15;;;;;;;16.63;81.14;100809.84;7393791;19;20018;-59
2023/07/23 04:37:56;;;;;;;13.07;7.10;;;;;;;16.67;80.76;100809.38;7394680;19;20047;-58
2023/07/23 04:40:24;;;;;;;12.82;7.07;;;;;;;16.68;80.61;100819.09;7394544;19;20014;-58
2023/07/23 04:42:51;;;;;;;11.55;6.85;;;;;;;16.69;80.74;100810.09;7392188;19;20014;-57
2023/07/23 04:45:19;;;;;;;12.93;6.30;;;;;;;16.67;80.55;100817.41;7392943;19;20024;-59
2023/07/23 04:47:46;;;;;;;12.00;6.70;;;;;;;16.70;80.44;100809.09;7393441;19;20014;-58
2023/07/23 04:50:14;;;;;;;11.70;6.68;;;;;;;16.70;80.43;100811.75;7393275;19;20018;-59
2023/07/23 04:52:41;;;;;;;13.88;6.72;;;;;;;16.65;80.43;100806.03;7392715;19;20376;-59
2023/07/23 04:55:08;;;;;;;11.20;6.32;;;;;;;16.69;80.46;100804.72;7393078;19;20022;-58
2023/07/23 04:57:36;;;;;;;13.77;6.90;;;;;;;16.71;80.24;100807.25;7393913;19;20019;-59
2023/07/23 05:00:06;;;;;;;12.20;6.65;;;;;;;16.66;80.30;100797.00;7393210;19;20019;-62
2023/07/23 05:02:34;;;;;;;11.98;5.93;;;;;;;16.72;80.13;100798.25;7392218;19;20035;-62
2023/07/23 05:05:01;;;;;;;12.55;6.45;;;;;;;16.69;80.02;100791.38;7390479;19;20083;-62
2023/07/23 05:07:28;;;;;;;13.25;6.53;;;;;;;16.70;80.06;100801.06;7393015;19;20030;-58
2023/07/23 05:09:56;;;;;;;12.65;6.35;;;;;;;16.67;79.85;100803.19;7392889;19;20022;-58
2023/07/23 05:12:23;;;;;;;10.77;5.88;;;;;;;16.74;79.75;100801.63;7390153;19;20022;-57
2023/07/23 05:14:50;;;;;;;12.68;6.75;;;;;;;16.67;80.14;100788.00;7392620;19;20098;-58
2023/07/23 05:17:18;;;;;;;13.32;6.85;;;;;;;16.67;80.40;100790.66;7391400;19;20018;-58
2023/07/23 05:19:45;;;;;;;11.73;6.32;;;;;;;16.75;80.49;100793.47;7393102;19;20010;-58
2023/07/23 05:22:12;;;;;;;13.82;7.03;;;;;;;16.78;80.51;100792.31;7391047;19;20029;-58
2023/07/23 05:24:39;;;;;;;12.82;7.15;;;;;;;16.73;80.62;100795.44;7392245;19;20035;-58
2023/07/23 05:27:07;;;;;;;11.93;6.40;;;;;;;16.71;80.41;100789.41;7391071;19;20596;-58
2023/07/23 05:29:34;;;;;;;16.05;7.95;;;;;;;16.69;80.66;100783.34;7391235;19;20027;-58
2023/07/23 05:32:02;;;;;;;12.85;6.43;;;;;;;16.72;80.69;100776.84;7391378;19;20018;-58
2023/07/23 05:34:29;;;;;;;11.75;6.35;;;;;;;16.76;80.86;100781.78;7395870;19;20018;-58
2023/07/23 05:36:56;;;;;;;13.35;6.90;;;;;;;16.74;80.47;100773.06;7388345;19;20021;-58
2023/07/23 05:39:23;;;;;;;13.75;6.90;;;;;;;16.81;80.33;100771.44;7392792;19;20097;-58
2023/07/23 05:41:51;;;;;;;14.82;6.28;;;;;;;16.80;80.33;100780.47;7391926;19;20014;-57
2023/07/23 05:44:18;;;;;;;11.95;6.40;;;;;;;16.76;80.20;100771.06;7392214;19;20018;-57
2023/07/23 05:46:45;;;;;;;14.63;7.00;;;;;;;16.77;80.28;100770.06;7392001;19;20058;-57
2023/07/23 05:49:13;;;;;;;13.77;6.40;;;;;;;16.76;80.44;100763.06;7390683;19;20119;-57
2023/07/23 05:51:41;;;;;;;12.57;6.03;;;;;;;16.75;80.58;100763.19;7391545;19;20465;-57
2023/07/23 05:54:08;;;;;;;14.80;6.68;;;;;;;16.75;79.88;100766.72;7391634;19;20493;-58
2023/07/23 05:56:35;;;;;;;11.55;6.13;;;;;;;16.79;80.08;100748.53;7389879;19;20014;-58
2023/07/23 05:59:03;;;;;;;13.15;6.15;;;;;;;16.80;80.18;100753.72;7391852;19;20019;-58
2023/07/23 06:01:30;;;;;;;11.93;5.68;;;;;;;16.88;80.09;100758.31;7391089;19;20094;-58
2023/07/23 06:03:58;;;;;;;12.93;6.07;;;;;;;16.96;79.37;100749.50;7391662;19;20020;-57
2023/07/23 06:06:25;;;;;;;12.95;6.35;;;;;;;16.92;79.80;100748.16;7389362;19;20539;-59
2023/07/23 06:08:53;;;;;;;12.52;5.78;;;;;;;16.93;79.73;100736.44;7389665;19;20015;-59
2023/07/23 06:11:21;;;;;;;10.23;5.40;;;;;;;16.98;79.87;100739.47;7390939;19;20022;-58
2023/07/23 06:13:48;;;;;;;12.82;5.57;;;;;;;17.02;79.58;100746.22;7390003;19;20380;-58
2023/07/23 06:16:16;;;;;;;12.50;5.88;;;;;;;17.10;79.42;100727.56;7390446;19;20011;-57
2023/07/23 06:18:43;;;;;;;11.73;5.60;;;;;;;17.14;79.18;100728.94;7391097;19;20019;-56
2023/07/23 06:21:10;;;;;;;10.65;5.35;;;;;;;17.20;79.42;100727.44;7390699;19;20026;-56
2023/07/23 06:23:38;;;;;;;9.60;5.45;;;;;;;17.24;79.37;100726.97;7391507;19;20022;-56
2023/07/23 06:26:05;;;;;;;12.02;6.25;;;;;;;17.28;79.19;100714.97;7389943;19;20014;-58
2023/07/23 06:28:35;;;;;;;10.65;5.30;;;;;;;17.14;79.48;100709.34;7390150;19;20042;-58
2023/07/23 06:31:02;;;;;;;10.05;5.60;;;;;;;17.23;79.13;100729.81;7390359;19;20090;-58
2023/07/23 06:33:29;;;;;;;11.45;5.40;;;;;;;17.18;79.35;100724.94;7391083;19;20030;-56
2023/07/23 06:35:57;;;;;;;12.68;5.32;;;;;;;17.14;79.29;100720.91;7389633;19;20035;-57
2023/07/23 06:38:24;;;;;;;13.48;5.82;;;;;;;17.19;79.12;100721.25;7392524;19;20022;-59
2023/07/23 06:40:53;;;;;;;13.13;5.90;;;;;;;17.10;79.29;100722.22;7398564;19;20043;-59
2023/07/23 06:43:20;;;;;;;9.73;5.70;;;;;;;17.17;79.45;100719.72;7397642;19;20014;-59
2023/07/23 06:45:49;;;;;;;11.85;5.57;;;;;;;17.23;79.14;100714.59;7397303;19;20025;-59
2023/07/23 06:48:20;;;;;;;10.32;5.05;;;;;;;17.27;79.27;100712.44;7397095;19;20498;-59
2023/07/23 06:50:47;;;;;;;9.43;5.10;;;;;;;17.22;79.47;100712.91;7397916;19;20015;-59
2023/07/23 06:53:15;;;;;;;11.25;5.43;;;;;;;17.26;79.45;100711.59;7392333;19;20491;-59
2023/07/23 06:56:00;;;;;;;11.25;5.85;;;;;;;17.37;79.02;100707.81;7396856;19;20490;-59
2023/07/23 06:58:29;;;;;;;14.52;5.95;;;;;;;17.35;79.56;100714.31;7396987;19;20499;-57
2023/07/23 07:00:57;;;;;;;11.95;5.82;;;;;;;17.40;79.57;100702.16;7397187;19;20117;-58
2023/07/23 07:03:25;;;;;;;11.60;6.00;;;;;;;17.37;79.45;100694.44;7396608;19;20011;-56
2023/07/23 07:05:53;;;;;;;11.20;5.78;;;;;;;17.34;79.32;100693.91;7396032;19;20007;-58
2023/07/23 07:08:21;;;;;;;15.75;6.03;;;;;;;17.42;79.23;100684.09;7395955;19;20086;-56
2023/07/23 07:10:49;;;;;;;12.27;6.18;;;;;;;17.52;78.80;100689.34;7397274;19;20014;-57
2023/07/23 07:13:17;;;;;;;12.25;5.50;;;;;;;17.53;78.52;100680.28;7394123;19;20548;-58
2023/07/23 07:15:44;;;;;;;10.88;5.18;;;;;;;17.45;78.99;100672.22;7394811;19;20044;-59
2023/07/23 07:18:11;;;;;;;10.43;5.57;;;;;;;17.59;78.50;100674.31;7395404;19;20023;-59
2023/07/23 07:20:38;;;;;;;11.32;5.63;;;;;;;17.62;79.15;100673.97;7396080;19;20019;-59
2023/07/23 07:23:06;;;;;;;10.02;5.40;;;;;;;17.64;78.76;100671.16;7394728;19;20019;-60
2023/07/23 07:25:33;;;;;;;10.93;5.30;;;;;;;17.65;78.62;100662.94;7396047;19;20022;-59
2023/07/23 07:28:00;;;;;;;10.23;5.50;;;;;;;17.54;78.82;100665.91;7396084;19;20043;-59
2023/07/23 07:30:28;;;;;;;12.52;5.70;;;;;;;17.59;78.64;100660.94;7396219;19;20029;-60
2023/07/23 07:32:55;;;;;;;8.93;5.32;;;;;;;17.69;78.57;100668.81;7394762;19;20022;-60
2023/07/23 07:35:22;;;;;;;10.57;5.82;;;;;;;17.66;78.62;100659.25;7395604;19;20023;-60
2023/07/23 07:37:50;;;;;;;10.10;5.53;;;;;;;17.76;78.55;100661.84;7396130;19;20014;-60
2023/07/23 07:40:17;;;;;;;10.25;5.68;;;;;;;17.82;78.67;100663.03;7394045;19;20507;-60
2023/07/23 07:42:44;;;;;;;13.25;5.60;;;;;;;17.78;78.52;100649.97;7395014;19;20375;-60
2023/07/23 07:45:12;;;;;;;9.32;5.53;;;;;;;17.86;78.14;100651.84;7395254;19;20380;-59
2023/07/23 07:47:39;;;;;;;11.18;5.85;;;;;;;17.89;78.50;100659.53;7395475;19;20484;-60
2023/07/23 07:50:08;;;;;;;11.20;5.82;;;;;;;17.92;78.66;100647.66;7392129;19;20014;-61
2023/07/23 07:52:35;;;;;;;11.23;5.55;;;;;;;17.93;78.62;100647.50;7394367;19;20024;-61
2023/07/23 07:55:03;;;;;;;12.00;6.10;;;;;;;18.05;78.28;100644.50;7394827;19;20035;-60
2023/07/23 07:57:32;;;;;;;12.02;5.82;;;;;;;18.01;78.63;100639.50;7394983;19;20047;-59
2023/07/23 08:00:03;;;;;;;12.25;6.05;;;;;;;18.05;78.30;100637.31;7393537;19;20495;-59
2023/07/23 08:02:31;;;;;;;10.77;5.50;;;;;;;18.08;78.26;100633.44;7394099;19;20335;-59
2023/07/23 08:04:58;;;;;;;11.57;5.70;;;;;;;18.09;78.38;100644.03;7394783;19;20390;-59
2023/07/23 08:07:26;;;;;;;12.48;6.03;;;;;;;18.08;79.03;100645.00;7394989;19;20082;-59
2023/07/23 08:09:58;;;;;;;12.93;5.57;;;;;;;18.18;78.51;100639.50;7393911;19;20010;-58
2023/07/23 08:12:26;;;;;;;10.93;5.85;;;;;;;18.22;78.42;100639.00;7394072;19;20019;-58
2023/07/23 08:14:55;;;;;;;11.40;5.70;;;;;;;18.23;77.86;100635.31;7394647;19;20011;-58
2023/07/23 08:17:23;;;;;;;10.50;6.03;;;;;;;18.22;77.69;100633.66;7395363;19;20187;-59
2023/07/23 08:19:51;;;;;;;11.05;5.97;;;;;;;18.34;77.48;100638.69;7394728;19;20018;-59
2023/07/23 08:22:18;;;;;;;12.77;6.10;;;;;;;18.34;77.25;100638.69;7393267;19;20022;-57
2023/07/23 08:24:46;;;;;;;10.77;5.40;;;;;;;18.32;77.64;100628.13;7393397;19;20442;-56
2023/07/23 08:27:20;;;;;;;11.10;6.25;;;;;;;18.42;77.67;100627.97;7394776;19;20021;-58
2023/07/23 08:29:47;;;;;;;13.32;5.60;;;;;;;18.47;77.63;100620.28;7391282;19;20019;-58
2023/07/23 08:32:19;;;;;;;11.00;5.88;;;;;;;18.60;77.80;100631.31;7393772;19;20098;-58
2023/07/23 08:34:47;;;;;;;11.02;5.90;;;;;;;18.65;77.29;100628.97;7397650;19;20015;-58
2023/07/23 08:37:14;;;;;;;10.52;5.70;;;;;;;18.72;76.95;100635.34;7393938;19;20010;-57
2023/07/23 08:39:42;;;;;;;12.23;6.18;;;;;;;18.70;76.47;100626.66;7393690;19;20011;-58
2023/07/23 08:42:36;;;;;;;13.60;5.82;;;;;;;18.73;75.99;100630.81;7392125;19;20352;-58
2023/07/23 08:45:09;;;;;;;;;;;;;;;18.65;76.05;100630.81;7394289;19;20026;-56
2023/07/23 08:47:38;;;;;;;9.93;6.10;;;;;;;18.71;76.20;100631.00;7393919;19;19934;-58
2023/07/23 08:50:05;;;;;;;10.55;5.78;;;;;;;18.84;75.90;100632.34;7391677;19;20010;-59
2023/07/23 08:52:35;;;;;;;11.77;5.70;;;;;;;18.95;75.67;100630.13;7392357;19;20496;-59
2023/07/23 08:55:03;;;;;;;14.15;6.50;;;;;;;19.02;75.46;100619.56;7392337;19;20138;-58
2023/07/23 08:57:32;;;;;;;9.95;5.45;;;;;;;19.12;74.75;100624.75;7393321;19;20373;-59
2023/07/23 09:00:01;;;;;;;8.90;5.57;;;;;;;19.10;74.06;100622.22;7398215;19;20014;-60
2023/07/23 09:02:29;;;;;;;9.85;5.57;;;;;;;19.14;73.33;100626.22;7389847;19;20680;-58
2023/07/23 09:04:57;;;;;;;9.23;5.68;;;;;;;19.22;73.45;100631.56;7392746;19;20035;-59
2023/07/23 09:07:25;;;;;;;12.13;5.85;;;;;;;19.32;73.45;100617.13;7393045;19;20019;-60
2023/07/23 09:09:52;;;;;;;11.23;5.65;;;;;;;19.44;72.66;100619.25;7392351;19;20022;-61
2023/07/23 09:12:20;;;;;;;9.13;5.43;;;;;;;19.47;72.32;100626.13;7391725;19;20015;-59
2023/07/23 09:14:47;;;;;;;13.25;6.30;;;;;;;19.47;71.81;100626.13;7392242;19;20030;-59
2023/07/23 09:17:19;;;;;;;12.05;5.85;;;;;;;19.45;72.34;100631.66;7392613;19;20025;-60
2023/07/23 09:19:47;;;;;;;11.70;5.88;;;;;;;19.33;72.42;100616.09;7391560;19;20031;-59
2023/07/23 09:22:18;;;;;;;10.55;6.05;;;;;;;19.31;71.90;100618.97;7392046;19;20021;-60
2023/07/23 09:24:45;;;;;;;12.20;6.18;;;;;;;19.21;72.35;100621.84;7392001;19;20022;-60
2023/07/23 09:27:12;;;;;;;10.98;5.65;;;;;;;19.21;72.35;100627.22;7390337;19;20385;-60
2023/07/23 09:29:43;;;;;;;12.60;6.25;;;;;;;19.26;72.82;100625.88;7390688;19;20142;-60
2023/07/23 09:32:25;;;;;;;13.90;6.60;;;;;;;19.30;72.08;100636.09;7391525;19;20019;-60
2023/07/23 09:34:58;;;;;;;11.63;6.53;;;;;;;19.14;72.55;100642.34;7395448;19;20101;-60
2023/07/23 09:37:29;;;;;;;14.48;6.80;;;;;;;19.16;72.70;100647.56;7391987;19;20021;-59
2023/07/23 09:39:57;;;;;;;13.40;6.75;;;;;;;19.17;72.30;100650.06;7391037;19;20019;-59
2023/07/23 09:42:25;;;;;;;12.43;6.80;;;;;;;19.06;72.67;100653.09;7390879;19;20022;-59
2023/07/23 09:44:52;;;;;;;12.38;6.53;;;;;;;19.03;73.21;100660.66;7390539;19;20480;-60
2023/07/23 09:47:24;;;;;;;10.80;6.60;;;;;;;19.05;73.15;100656.78;7392017;19;20022;-60
2023/07/23 09:49:52;;;;;;;12.75;7.07;;;;;;;18.93;73.06;100664.38;7390268;19;20487;-59
2023/07/23 09:52:26;;;;;;;10.40;6.43;;;;;;;18.83;73.73;100661.00;7390072;19;20018;-59
2023/07/23 09:54:54;;;;;;;15.32;7.13;;;;;;;18.74;73.90;100670.91;7391113;19;20030;-59
2023/07/23 09:57:23;;;;;;;13.00;7.38;;;;;;;18.69;74.40;100669.69;7391130;19;20033;-58
2023/07/23 09:59:52;;;;;;;12.10;7.28;;;;;;;18.64;74.69;100670.22;7391285;19;20099;-59
2023/07/23 10:02:22;;;;;;;12.55;7.72;;;;;;;18.68;74.36;100666.19;7389830;19;20018;-59
2023/07/23 10:04:49;;;;;;;12.60;7.03;;;;;;;18.74;74.75;100678.97;7388282;19;20039;-59
2023/07/23 10:07:17;;;;;;;13.27;7.40;;;;;;;18.76;74.87;100670.75;7390986;19;20045;-58
2023/07/23 10:09:47;;;;;;;12.90;7.18;;;;;;;18.81;74.91;100670.22;7390137;19;20759;-60
2023/07/23 10:12:15;;;;;;;13.32;7.72;;;;;;;18.84;74.90;100670.72;7390502;19;20023;-60
2023/07/23 10:14:42;;;;;;;13.68;7.18;;;;;;;18.91;74.82;100671.72;7388905;19;20015;-59
2023/07/23 10:17:10;;;;;;;13.63;7.80;;;;;;;18.89;75.19;100673.75;7391061;19;20031;-59
2023/07/23 10:19:40;;;;;;;13.68;7.78;;;;;;;18.96;75.24;100679.28;7388250;19;20527;-59
2023/07/23 10:22:08;;;;;;;14.18;8.27;;;;;;;18.93;75.24;100674.28;7388782;19;20042;-59
2023/07/23 10:24:39;;;;;;;13.32;7.07;;;;;;;18.87;75.29;100675.75;7387929;19;20018;-59
2023/07/23 10:27:16;;;;;;;13.65;7.82;;;;;;;18.99;74.52;100676.25;7390664;19;20015;-59
2023/07/23 10:30:18;;;;;;;12.88;7.35;;;;;;;19.08;74.74;100672.56;7389676;19;20528;-59
2023/07/23 10:33:07;;;;;;;15.50;7.95;;;;;;;18.88;74.88;100677.44;7389607;19;20508;-59
2023/07/23 10:35:52;;;;;;;12.25;7.95;;;;;;;18.87;75.72;100681.13;7389063;19;20025;-60
2023/07/23 10:38:20;;;;;;;13.73;7.70;;;;;;;18.85;75.65;100683.16;7390332;19;20036;-59
2023/07/23 10:40:48;;;;;;;16.02;7.55;;;;;;;18.85;75.37;100676.94;7388588;19;20022;-60
2023/07/23 10:43:16;;;;;;;12.82;7.72;;;;;;;19.04;74.98;100681.09;7388319;19;20018;-59
2023/07/23 10:46:20;;;;;;;13.00;7.65;;;;;;;19.20;74.75;100684.63;7388302;19;20022;-59
2023/07/23 10:48:54;;;;;;;12.80;7.72;;;;;;;19.03;75.04;100674.91;7390321;19;20022;-59
2023/07/23 10:51:24;;;;;;;11.50;7.30;;;;;;;18.90;75.41;100691.53;7388429;19;20456;-58
2023/07/23 10:53:55;;;;;;;11.43;6.47;;;;;;;18.75;75.50;100680.63;7389854;19;20039;-59
2023/07/23 10:56:33;;;;;;;11.23;6.22;;;;;;;18.81;74.75;100673.78;7389321;19;20018;-59
2023/07/23 10:59:08;;;;;;;11.13;6.15;;;;;;;18.89;74.67;100672.94;7389555;19;20014;-59
2023/07/23 11:01:40;;;;;;;10.90;6.80;;;;;;;18.82;74.74;100675.44;7387625;19;20014;-60
2023/07/23 11:04:10;;;;;;;14.60;7.75;;;;;;;18.99;74.43;100677.09;7389395;19;20018;-60
2023/07/23 11:06:41;;;;;;;10.65;6.35;;;;;;;18.82;75.04;100670.06;7387146;19;20018;-58
2023/07/23 11:09:13;;;;;;;11.60;7.03;;;;;;;18.70;75.64;100669.59;7389296;19;20037;-59
2023/07/23 11:11:41;;;;;;;13.27;7.03;;;;;;;18.69;75.60;100670.53;7389549;19;20018;-59
2023/07/23 11:14:20;;;;;;;10.60;6.47;;;;;;;18.70;75.05;100674.94;7388858;19;20015;-60
2023/07/23 11:16:52;;;;;;;11.48;6.47;;;;;;;18.70;75.50;100684.81;7388877;19;20646;-60
2023/07/23 11:19:21;;;;;;;15.10;6.70;;;;;;;18.74;75.51;100672.78;7389652;19;20019;-59
2023/07/23 11:21:50;;;;;;;12.60;6.97;;;;;;;18.90;75.46;100685.34;7388689;19;20026;-59
2023/07/23 11:24:19;;;;;;;13.38;6.85;;;;;;;18.96;75.01;100676.59;7388951;19;20038;-59